Time;durP1;ratioP1;P1;durP2;ratioP2;P2;SDS_P1;SDS_P2;PMS_P1;PMS_P2;Temp;Humidity;BMP_temperature;BMP_pressure;BME280_temperature;BME280_humidity;BME280_pressure;Samples;Min_cycle;Max_cycle;Signal;HPM_P1;HPM_P2
2021/10/17 00:00:08;;;;;;;16.95;10.15;;;8.20;99.90;;;;;;5050974;28;20390;-76
2021/10/17 00:02:35;;;;;;;15.18;10.27;;;8.20;99.90;;;;;;5051863;28;20044;-78
2021/10/17 00:05:02;;;;;;;15.00;10.25;;;8.10;99.90;;;;;;5052261;28;20565;-79
2021/10/17 00:07:29;;;;;;;15.10;10.02;;;8.20;99.90;;;;;;5050206;28;20132;-79
2021/10/17 00:09:59;;;;;;;14.45;9.50;;;8.10;99.90;;;;;;5050868;28;20056;-78
2021/10/17 00:12:26;;;;;;;13.43;9.25;;;8.10;99.90;;;;;;5036740;28;20109;-75
2021/10/17 00:14:53;;;;;;;14.98;9.63;;;8.10;99.90;;;;;;5050228;28;20491;-78
2021/10/17 00:17:20;;;;;;;15.13;10.27;;;8.10;99.90;;;;;;5050229;28;20140;-77
2021/10/17 00:19:47;;;;;;;14.38;10.20;;;8.10;99.90;;;;;;5050874;28;20055;-79
2021/10/17 00:22:14;;;;;;;15.98;9.73;;;8.10;99.90;;;;;;5050691;28;20049;-78
2021/10/17 00:24:41;;;;;;;14.05;9.70;;;8.00;99.90;;;;;;5052263;28;20056;-78
2021/10/17 00:27:10;;;;;;;14.52;8.77;;;8.10;99.90;;;;;;5050701;28;20160;-78
2021/10/17 00:29:37;;;;;;;13.82;8.65;;;8.00;99.90;;;;;;5050939;28;20075;-77
2021/10/17 00:32:08;;;;;;;12.55;8.90;;;8.00;99.90;;;;;;5051065;28;20127;-77
2021/10/17 00:34:36;;;;;;;12.15;8.43;;;8.00;99.90;;;;;;5037917;28;20117;-76
2021/10/17 00:37:03;;;;;;;13.38;8.43;;;8.00;99.90;;;;;;5049580;28;20067;-78
2021/10/17 00:39:30;;;;;;;12.00;7.72;;;7.90;99.90;;;;;;5052959;28;20081;-78
2021/10/17 00:42:01;;;;;;;14.10;8.55;;;7.90;99.90;;;;;;5053243;28;20558;-78
2021/10/17 00:44:29;;;;;;;12.43;8.10;;;7.90;99.90;;;;;;5045850;28;20417;-78
2021/10/17 00:46:57;;;;;;;13.95;8.95;;;8.00;99.90;;;;;;5053496;28;20135;-77
2021/10/17 00:49:24;;;;;;;12.00;8.10;;;7.90;99.90;;;;;;5053455;28;20073;-77
2021/10/17 00:51:51;;;;;;;13.48;8.77;;;8.00;99.90;;;;;;5053365;28;20084;-78
2021/10/17 00:54:18;;;;;;;12.75;8.65;;;8.00;99.90;;;;;;5052796;28;20542;-78
2021/10/17 00:56:46;;;;;;;12.70;8.48;;;8.00;99.90;;;;;;5052835;28;20045;-80
2021/10/17 00:59:14;;;;;;;13.15;8.85;;;8.00;99.90;;;;;;5052637;28;20131;-78
2021/10/17 01:01:42;;;;;;;13.85;8.38;;;8.10;99.90;;;;;;5052936;28;20051;-78
2021/10/17 01:04:10;;;;;;;14.60;9.10;;;8.00;99.90;;;;;;5052832;28;20131;-80
2021/10/17 01:06:38;;;;;;;14.85;9.60;;;8.10;99.90;;;;;;5052595;28;20112;-78
2021/10/17 01:09:05;;;;;;;13.27;8.88;;;8.10;99.90;;;;;;5052618;28;20048;-79
2021/10/17 01:11:43;;;;;;;16.85;9.95;;;8.10;99.90;;;;;;5052723;28;20128;-78
2021/10/17 01:14:16;;;;;;;14.52;9.57;;;8.10;99.90;;;;;;5052450;28;20465;-78
2021/10/17 01:16:45;;;;;;;13.45;8.95;;;8.10;99.90;;;;;;5052444;28;20160;-78
2021/10/17 01:19:12;;;;;;;14.60;9.60;;;8.10;99.90;;;;;;5052585;28;20136;-78
2021/10/17 01:21:42;;;;;;;13.13;9.05;;;8.00;99.90;;;;;;5052643;28;20139;-80
2021/10/17 01:24:11;;;;;;;14.63;9.63;;;8.00;99.90;;;;;;5052256;28;20137;-78
2021/10/17 01:26:39;;;;;;;13.90;10.00;;;7.90;99.90;;;;;;5052540;28;20128;-77
2021/10/17 01:29:06;;;;;;;13.68;9.10;;;7.80;99.90;;;;;;5052446;28;20139;-78
2021/10/17 01:31:35;;;;;;;17.50;10.43;;;7.80;99.90;;;;;;5052411;28;20037;-77
2021/10/17 01:34:03;;;;;;;15.30;9.93;;;7.70;99.90;;;;;;5052184;28;20128;-79
2021/10/17 01:36:31;;;;;;;13.95;9.60;;;7.60;99.90;;;;;;5051948;28;20068;-79
2021/10/17 01:38:59;;;;;;;13.63;9.07;;;7.50;99.90;;;;;;5051763;28;20494;-78
2021/10/17 01:41:26;;;;;;;13.25;9.23;;;7.50;99.90;;;;;;5050571;28;20140;-78
2021/10/17 01:43:53;;;;;;;13.23;9.02;;;7.50;99.90;;;;;;5051971;28;20051;-79
2021/10/17 01:46:20;;;;;;;14.27;9.55;;;7.50;99.90;;;;;;5051924;28;20133;-80
2021/10/17 01:48:48;;;;;;;13.05;8.75;;;7.50;99.90;;;;;;5051865;28;20128;-78
2021/10/17 01:51:15;;;;;;;11.48;8.60;;;7.40;99.90;;;;;;5051699;28;20052;-76
2021/10/17 01:53:42;;;;;;;12.45;8.60;;;7.40;99.90;;;;;;5051819;28;20123;-78
2021/10/17 01:56:10;;;;;;;11.82;8.52;;;7.40;99.90;;;;;;5051862;28;20131;-80
2021/10/17 01:58:37;;;;;;;13.35;8.57;;;7.40;99.90;;;;;;5051814;28;20131;-78
2021/10/17 02:01:05;;;;;;;12.25;8.07;;;7.40;99.90;;;;;;5051427;28;20139;-78
2021/10/17 02:03:32;;;;;;;11.93;8.48;;;7.40;99.90;;;;;;5051766;28;20131;-78
2021/10/17 02:06:02;;;;;;;11.65;7.80;;;7.40;99.90;;;;;;5051295;28;20136;-79
2021/10/17 02:08:29;;;;;;;13.00;8.27;;;7.40;99.90;;;;;;5036111;28;20051;-77
2021/10/17 02:10:56;;;;;;;13.05;8.70;;;7.50;99.90;;;;;;5052055;28;20135;-77
2021/10/17 02:13:25;;;;;;;12.57;7.78;;;7.50;99.90;;;;;;5051568;28;20132;-77
2021/10/17 02:15:52;;;;;;;12.07;8.05;;;7.60;99.90;;;;;;5051325;28;20379;-80
2021/10/17 02:18:19;;;;;;;12.23;8.75;;;7.50;99.90;;;;;;5050318;28;20135;-77
2021/10/17 02:20:46;;;;;;;12.43;8.70;;;7.60;99.90;;;;;;5051600;28;20148;-79
2021/10/17 02:23:13;;;;;;;14.27;9.30;;;7.70;99.90;;;;;;5051430;28;20133;-79
2021/10/17 02:25:41;;;;;;;13.75;9.35;;;7.70;99.90;;;;;;5051442;28;20156;-79
2021/10/17 02:28:08;;;;;;;13.38;8.93;;;7.70;99.90;;;;;;5051231;28;20132;-76
2021/10/17 02:30:37;;;;;;;12.75;8.95;;;7.70;99.90;;;;;;5051603;28;20135;-78
2021/10/17 02:33:04;;;;;;;11.68;8.27;;;7.70;99.90;;;;;;5051177;28;20116;-77
2021/10/17 02:35:31;;;;;;;11.23;8.18;;;7.70;99.90;;;;;;5051556;28;20128;-77
2021/10/17 02:37:58;;;;;;;17.90;11.18;;;7.60;99.90;;;;;;5051342;28;20461;-77
2021/10/17 02:40:25;;;;;;;14.70;9.82;;;7.60;99.90;;;;;;5051341;28;20494;-80
2021/10/17 02:42:52;;;;;;;14.73;9.48;;;7.60;99.90;;;;;;5051508;28;20147;-80
2021/10/17 02:45:19;;;;;;;14.88;9.77;;;7.70;99.90;;;;;;5051319;28;20051;-78
2021/10/17 02:47:47;;;;;;;15.13;10.18;;;7.70;99.90;;;;;;5051286;28;20454;-77
2021/10/17 02:50:15;;;;;;;12.98;8.98;;;7.70;99.90;;;;;;5051395;28;20127;-79
2021/10/17 02:52:42;;;;;;;11.80;8.43;;;7.70;99.90;;;;;;5051205;28;20075;-76
2021/10/17 02:55:10;;;;;;;11.75;7.82;;;7.70;99.90;;;;;;5051437;28;20124;-77
2021/10/17 02:57:37;;;;;;;12.68;8.48;;;7.80;99.90;;;;;;5051492;28;20085;-80
2021/10/17 03:00:06;;;;;;;12.57;8.45;;;7.80;99.90;;;;;;5050991;28;20051;-78
2021/10/17 03:02:34;;;;;;;11.20;8.30;;;7.80;99.90;;;;;;5049771;28;20073;-77
2021/10/17 03:05:04;;;;;;;12.77;8.55;;;7.90;99.90;;;;;;5049077;28;20128;-80
2021/10/17 03:07:31;;;;;;;14.18;9.32;;;7.90;99.90;;;;;;5049003;28;20144;-77
2021/10/17 03:09:58;;;;;;;13.73;9.13;;;7.90;99.90;;;;;;5047901;28;20130;-80
2021/10/17 03:12:26;;;;;;;14.05;9.35;;;7.90;99.90;;;;;;5048648;28;20131;-79
2021/10/17 03:14:53;;;;;;;14.73;9.27;;;7.90;99.90;;;;;;5048915;28;20136;-78
2021/10/17 03:17:20;;;;;;;13.77;9.38;;;7.90;99.90;;;;;;5048151;28;20136;-81
2021/10/17 03:19:47;;;;;;;15.50;9.30;;;7.90;99.90;;;;;;5048687;28;20207;-80
2021/10/17 03:22:15;;;;;;;15.23;9.82;;;7.90;99.90;;;;;;5048277;28;20418;-76
2021/10/17 03:24:42;;;;;;;13.77;9.13;;;7.90;99.90;;;;;;5048848;28;20127;-79
2021/10/17 03:27:09;;;;;;;14.45;9.23;;;7.90;99.90;;;;;;5049379;28;20136;-79
2021/10/17 03:29:36;;;;;;;14.30;8.80;;;7.90;99.90;;;;;;5037836;28;20128;-79
2021/10/17 03:32:04;;;;;;;14.70;9.02;;;7.90;99.90;;;;;;5052004;28;20057;-78
2021/10/17 03:34:31;;;;;;;13.27;8.80;;;7.80;99.90;;;;;;5051695;28;20532;-78
2021/10/17 03:36:58;;;;;;;13.00;8.85;;;7.90;99.90;;;;;;5052070;28;20099;-78
2021/10/17 03:39:26;;;;;;;13.93;9.52;;;7.90;99.90;;;;;;5052071;28;20144;-78
2021/10/17 03:41:53;;;;;;;13.40;9.30;;;7.90;99.90;;;;;;5051983;28;20048;-79
2021/10/17 03:44:20;;;;;;;14.23;9.60;;;7.90;99.90;;;;;;5052024;28;20406;-79
2021/10/17 03:46:47;;;;;;;15.27;9.57;;;7.90;99.90;;;;;;5051745;28;20450;-77
2021/10/17 03:49:15;;;;;;;14.77;9.45;;;7.90;99.90;;;;;;5051907;28;20491;-76
2021/10/17 03:51:42;;;;;;;14.05;8.98;;;7.90;99.90;;;;;;5051561;28;20128;-75
2021/10/17 03:54:09;;;;;;;13.85;9.52;;;7.90;99.90;;;;;;5051463;28;20128;-79
2021/10/17 03:56:37;;;;;;;14.60;9.38;;;7.90;99.90;;;;;;5051878;28;20546;-81
2021/10/17 03:59:05;;;;;;;16.27;9.40;;;8.00;99.90;;;;;;5051783;28;20132;-78
2021/10/17 04:01:32;;;;;;;14.10;9.50;;;8.00;99.90;;;;;;5052601;28;20056;-79
2021/10/17 04:03:59;;;;;;;13.13;9.68;;;8.00;99.90;;;;;;5053797;28;20076;-79
2021/10/17 04:06:26;;;;;;;13.77;9.50;;;8.00;99.90;;;;;;5053742;28;20148;-81
2021/10/17 04:08:53;;;;;;;15.43;10.07;;;8.00;99.90;;;;;;5053793;28;20479;-80
2021/10/17 04:11:20;;;;;;;15.27;9.40;;;8.10;99.90;;;;;;5054091;28;20128;-81
2021/10/17 04:13:48;;;;;;;12.38;9.18;;;8.00;99.90;;;;;;5053910;28;20164;-78
2021/10/17 04:16:15;;;;;;;12.77;9.15;;;8.00;99.90;;;;;;5053752;28;20128;-79
2021/10/17 04:18:42;;;;;;;14.15;9.40;;;8.00;99.90;;;;;;5052444;28;20128;-80
2021/10/17 04:21:09;;;;;;;12.98;9.32;;;7.90;99.90;;;;;;5053548;28;20045;-78
2021/10/17 04:23:37;;;;;;;13.50;8.57;;;7.80;99.90;;;;;;5053578;28;20127;-80
2021/10/17 04:26:04;;;;;;;13.85;9.13;;;7.80;99.90;;;;;;5053676;28;20462;-78
2021/10/17 04:28:31;;;;;;;13.43;8.93;;;7.70;99.90;;;;;;5053500;28;20107;-78
2021/10/17 04:31:00;;;;;;;13.73;9.27;;;7.70;99.90;;;;;;5053330;28;20252;-80
2021/10/17 04:33:27;;;;;;;14.75;9.00;;;7.70;99.90;;;;;;5045292;28;20135;-80
2021/10/17 04:35:54;;;;;;;16.00;9.95;;;7.60;99.90;;;;;;5053263;28;20135;-79
2021/10/17 04:38:21;;;;;;;15.10;10.00;;;7.60;99.90;;;;;;5053072;28;20139;-78
2021/10/17 04:40:48;;;;;;;16.42;10.43;;;7.60;99.90;;;;;;5053261;28;20063;-79
2021/10/17 04:43:15;;;;;;;15.20;10.27;;;7.60;99.90;;;;;;5053206;28;20135;-81
2021/10/17 04:45:43;;;;;;;16.45;9.80;;;7.60;99.90;;;;;;5052803;28;20477;-80
2021/10/17 04:48:11;;;;;;;14.52;9.20;;;7.60;99.90;;;;;;5053005;28;20055;-78
2021/10/17 04:50:38;;;;;;;14.82;9.65;;;7.60;99.90;;;;;;5053094;28;20153;-81
2021/10/17 04:53:05;;;;;;;14.10;9.07;;;7.60;99.90;;;;;;5052828;28;20110;-81
2021/10/17 04:55:32;;;;;;;14.68;9.40;;;7.60;99.90;;;;;;5053263;28;20083;-77
2021/10/17 04:58:02;;;;;;;15.60;9.82;;;7.60;99.90;;;;;;5052803;28;20048;-79
2021/10/17 05:00:29;;;;;;;15.05;9.70;;;7.60;99.90;;;;;;5052644;28;20454;-80
2021/10/17 05:02:56;;;;;;;14.48;9.20;;;7.60;99.90;;;;;;5052708;28;20045;-78
2021/10/17 05:05:25;;;;;;;14.40;9.55;;;7.60;99.90;;;;;;5053239;28;20582;-77
2021/10/17 05:07:52;;;;;;;15.25;10.02;;;7.70;99.90;;;;;;5052821;28;20140;-78
2021/10/17 05:10:19;;;;;;;15.80;9.77;;;7.70;99.90;;;;;;5052680;28;20080;-78
2021/10/17 05:12:46;;;;;;;15.48;9.95;;;7.70;99.90;;;;;;5052773;28;20140;-79
2021/10/17 05:15:13;;;;;;;14.55;9.23;;;7.70;99.90;;;;;;5052407;28;20076;-81
2021/10/17 05:17:40;;;;;;;14.23;9.60;;;7.70;99.90;;;;;;5052627;28;20489;-79
2021/10/17 05:20:08;;;;;;;15.13;9.48;;;7.70;99.90;;;;;;5052480;28;20057;-80
2021/10/17 05:22:37;;;;;;;15.63;9.48;;;7.70;99.90;;;;;;5052665;28;20135;-79
2021/10/17 05:25:05;;;;;;;13.38;8.77;;;7.70;99.90;;;;;;5052383;28;20126;-79
2021/10/17 05:27:32;;;;;;;14.32;9.30;;;7.80;99.90;;;;;;5058681;28;20128;-80
2021/10/17 05:29:59;;;;;;;13.38;8.77;;;7.70;99.90;;;;;;5051020;28;20144;-80
2021/10/17 05:32:26;;;;;;;14.70;9.50;;;7.70;99.90;;;;;;5052197;28;20051;-81
2021/10/17 05:34:53;;;;;;;14.10;9.02;;;7.70;99.90;;;;;;5052186;28;20139;-80
2021/10/17 05:37:19;;;;;;;14.35;8.57;;;7.70;99.90;;;;;;5052155;28;20132;-80
2021/10/17 05:39:48;;;;;;;14.07;9.48;;;7.80;99.90;;;;;;5044874;28;20140;-78
2021/10/17 05:42:15;;;;;;;15.80;9.63;;;7.80;99.90;;;;;;5042480;28;20051;-78
2021/10/17 05:44:42;;;;;;;14.32;9.80;;;7.80;99.90;;;;;;5044137;28;20124;-80
2021/10/17 05:47:09;;;;;;;15.07;9.70;;;7.80;99.90;;;;;;5049891;28;20127;-79
2021/10/17 05:49:37;;;;;;;12.85;9.10;;;7.70;99.90;;;;;;5050921;28;20079;-77
2021/10/17 05:52:05;;;;;;;13.63;9.27;;;7.70;99.90;;;;;;5051799;28;20049;-79
2021/10/17 05:54:32;;;;;;;14.90;9.45;;;7.70;99.90;;;;;;5045780;28;20088;-80
2021/10/17 05:57:01;;;;;;;15.60;9.48;;;7.70;99.90;;;;;;5042954;28;20132;-76
2021/10/17 05:59:28;;;;;;;14.63;9.25;;;7.60;99.90;;;;;;5038392;28;20543;-75
2021/10/17 06:01:55;;;;;;;13.57;9.30;;;7.60;99.90;;;;;;5051409;28;20137;-79
2021/10/17 06:04:22;;;;;;;15.68;9.25;;;7.60;99.90;;;;;;5050548;28;20228;-79
2021/10/17 06:06:49;;;;;;;13.27;8.82;;;7.50;99.90;;;;;;5048586;28;20143;-79
2021/10/17 06:09:16;;;;;;;15.32;9.23;;;7.50;99.90;;;;;;5050149;28;20180;-77
2021/10/17 06:11:44;;;;;;;13.23;8.93;;;7.50;99.90;;;;;;5047546;28;20041;-77
2021/10/17 06:14:13;;;;;;;14.40;9.23;;;7.50;99.90;;;;;;5050057;28;20520;-79
2021/10/17 06:16:40;;;;;;;13.55;9.10;;;7.50;99.90;;;;;;5051164;28;20069;-79
2021/10/17 06:19:07;;;;;;;13.15;9.15;;;7.50;99.90;;;;;;5051365;28;20832;-79
2021/10/17 06:21:34;;;;;;;12.43;8.27;;;7.50;99.90;;;;;;5051126;28;20075;-80
2021/10/17 06:24:01;;;;;;;11.77;8.02;;;7.40;99.90;;;;;;5051213;28;20152;-78
2021/10/17 06:26:28;;;;;;;14.13;8.35;;;7.40;99.90;;;;;;5035491;28;20303;-78
2021/10/17 06:28:55;;;;;;;13.85;9.02;;;7.40;99.90;;;;;;5040532;28;20496;-80
2021/10/17 06:31:23;;;;;;;13.02;8.68;;;7.40;99.90;;;;;;5050422;28;20049;-80
2021/10/17 06:33:50;;;;;;;12.32;8.13;;;7.40;99.90;;;;;;5050947;28;20469;-80
2021/10/17 06:36:17;;;;;;;12.32;8.05;;;7.30;99.90;;;;;;5043642;28;20077;-78
2021/10/17 06:38:44;;;;;;;13.50;8.10;;;7.30;99.90;;;;;;5050507;28;20120;-78
2021/10/17 06:41:11;;;;;;;12.57;8.27;;;7.30;99.90;;;;;;5044933;28;20128;-77
2021/10/17 06:43:38;;;;;;;14.23;8.50;;;7.30;99.90;;;;;;5047226;28;20133;-78
2021/10/17 06:46:05;;;;;;;12.10;8.40;;;7.30;99.90;;;;;;5047589;28;20128;-78
2021/10/17 06:48:34;;;;;;;12.98;9.32;;;7.30;99.90;;;;;;5049683;28;20084;-80
2021/10/17 06:51:02;;;;;;;12.48;8.77;;;7.30;99.90;;;;;;5051117;28;20049;-79
2021/10/17 06:53:29;;;;;;;15.65;9.57;;;7.30;99.90;;;;;;5051268;28;20044;-79
2021/10/17 06:55:56;;;;;;;13.82;9.52;;;7.30;99.90;;;;;;5051114;28;20476;-77
2021/10/17 06:58:23;;;;;;;15.07;9.40;;;7.30;99.90;;;;;;5050810;28;20558;-79
2021/10/17 07:00:50;;;;;;;13.25;9.18;;;7.30;99.90;;;;;;5049368;28;20140;-79
2021/10/17 07:03:17;;;;;;;15.73;9.00;;;7.40;99.90;;;;;;5054097;28;20402;-79
2021/10/17 07:05:45;;;;;;;16.40;9.93;;;7.40;99.90;;;;;;5053309;28;20137;-81
2021/10/17 07:08:12;;;;;;;14.57;9.15;;;7.50;99.90;;;;;;5041051;28;20140;-80
2021/10/17 07:10:39;;;;;;;13.45;9.00;;;7.50;99.90;;;;;;5049805;28;20045;-81
2021/10/17 07:13:06;;;;;;;17.58;10.25;;;7.50;99.90;;;;;;5044177;28;20044;-80
2021/10/17 07:15:33;;;;;;;21.85;13.73;;;7.60;99.90;;;;;;5054910;28;20131;-78
2021/10/17 07:18:00;;;;;;;16.05;10.48;;;7.60;99.90;;;;;;5054432;28;20144;-77
2021/10/17 07:20:28;;;;;;;15.82;10.10;;;7.60;99.90;;;;;;5039042;28;20125;-80
2021/10/17 07:22:56;;;;;;;15.80;9.98;;;7.60;99.90;;;;;;5054505;28;20486;-79
2021/10/17 07:25:24;;;;;;;17.75;10.25;;;7.60;99.90;;;;;;5054724;28;20041;-79
2021/10/17 07:27:52;;;;;;;16.23;10.13;;;7.50;99.90;;;;;;5054816;28;20128;-80
2021/10/17 07:30:20;;;;;;;14.68;9.70;;;7.50;99.90;;;;;;5054267;28;20184;-81
2021/10/17 07:32:47;;;;;;;17.40;10.40;;;7.60;99.90;;;;;;5054091;28;20060;-79
2021/10/17 07:35:14;;;;;;;17.08;10.10;;;7.60;99.90;;;;;;5054455;28;20140;-80
2021/10/17 07:37:41;;;;;;;16.60;10.57;;;7.60;99.90;;;;;;5053398;28;20136;-79
2021/10/17 07:40:11;;;;;;;14.52;9.93;;;7.60;99.90;;;;;;5052612;28;20482;-79
2021/10/17 07:42:38;;;;;;;15.20;10.63;;;7.60;99.90;;;;;;5043574;28;20131;-80
2021/10/17 07:45:07;;;;;;;17.33;11.18;;;7.60;99.90;;;;;;5049859;28;20129;-76
2021/10/17 07:47:35;;;;;;;16.13;10.25;;;7.60;99.90;;;;;;5052524;28;20051;-79
2021/10/17 07:50:03;;;;;;;15.40;10.60;;;7.60;99.90;;;;;;5053497;28;20136;-79
2021/10/17 07:52:30;;;;;;;14.85;9.93;;;7.60;99.90;;;;;;5051558;28;20136;-81
2021/10/17 07:54:57;;;;;;;14.48;10.18;;;7.60;99.90;;;;;;5054186;28;20049;-78
2021/10/17 07:57:25;;;;;;;15.85;10.10;;;7.60;99.90;;;;;;5053441;28;20124;-78
2021/10/17 07:59:53;;;;;;;14.38;9.60;;;7.70;99.90;;;;;;5053547;28;20140;-81
2021/10/17 08:02:20;;;;;;;15.15;10.23;;;7.70;99.90;;;;;;5052547;28;20053;-79
2021/10/17 08:04:48;;;;;;;14.95;9.68;;;7.80;99.90;;;;;;5047784;28;20107;-79
2021/10/17 08:07:17;;;;;;;17.35;9.98;;;7.80;99.90;;;;;;5052822;28;20653;-77
2021/10/17 08:09:44;;;;;;;15.45;10.50;;;7.90;99.90;;;;;;5052928;28;20037;-76
2021/10/17 08:12:11;;;;;;;15.13;9.68;;;8.00;99.90;;;;;;5052778;28;20143;-79
2021/10/17 08:14:40;;;;;;;14.52;10.15;;;8.10;99.90;;;;;;5049722;28;20127;-78
2021/10/17 08:17:07;;;;;;;14.90;10.38;;;8.10;99.90;;;;;;5052850;28;20131;-79
2021/10/17 08:19:34;;;;;;;15.27;10.13;;;8.20;99.90;;;;;;5053303;28;20172;-76
2021/10/17 08:22:01;;;;;;;14.10;9.90;;;8.20;99.90;;;;;;5053014;28;20248;-80
2021/10/17 08:24:28;;;;;;;12.73;9.40;;;8.20;99.90;;;;;;5052936;28;20576;-78
2021/10/17 08:26:55;;;;;;;14.10;9.45;;;8.30;99.90;;;;;;5052426;28;20136;-77
2021/10/17 08:29:22;;;;;;;15.23;10.27;;;8.30;99.90;;;;;;5053037;28;20168;-79
2021/10/17 08:31:51;;;;;;;14.27;9.52;;;8.40;99.90;;;;;;5052131;28;20562;-77
2021/10/17 08:34:18;;;;;;;14.57;9.23;;;8.40;99.90;;;;;;5040762;28;20053;-80
2021/10/17 08:36:45;;;;;;;13.90;10.10;;;8.50;99.90;;;;;;5052553;28;20147;-77
2021/10/17 08:39:12;;;;;;;19.45;11.63;;;8.50;99.90;;;;;;5053289;28;20125;-77
2021/10/17 08:41:40;;;;;;;14.63;10.85;;;8.60;99.90;;;;;;5052811;28;20574;-76
2021/10/17 08:44:07;;;;;;;14.45;10.30;;;8.60;99.90;;;;;;5052302;28;20128;-79
2021/10/17 08:46:35;;;;;;;13.23;10.02;;;8.60;99.90;;;;;;5050671;28;20131;-78
2021/10/17 08:49:03;;;;;;;14.65;10.38;;;8.70;99.90;;;;;;5053771;28;20139;-79
2021/10/17 08:51:31;;;;;;;14.52;10.02;;;8.70;99.90;;;;;;5049117;28;20045;-79
2021/10/17 08:53:58;;;;;;;13.85;9.77;;;8.80;99.90;;;;;;5049693;28;20445;-78
2021/10/17 08:56:26;;;;;;;13.93;10.00;;;8.80;99.90;;;;;;5051729;28;20080;-79
2021/10/17 08:58:53;;;;;;;16.20;10.55;;;8.90;99.90;;;;;;5053497;28;20136;-79
2021/10/17 09:01:20;;;;;;;15.07;10.68;;;8.90;99.90;;;;;;5037894;28;20050;-77
2021/10/17 09:03:58;;;;;;;16.13;11.27;;;9.00;99.90;;;;;;5052184;28;20144;-82
2021/10/17 09:06:29;;;;;;;16.38;11.23;;;9.00;99.90;;;;;;5051785;28;20177;-78
2021/10/17 09:09:09;;;;;;;15.95;11.18;;;9.00;99.90;;;;;;5053096;28;20079;-79
2021/10/17 09:11:41;;;;;;;17.90;13.23;;;9.10;99.90;;;;;;5053135;28;20554;-78
2021/10/17 09:14:10;;;;;;;15.82;10.88;;;9.10;99.90;;;;;;5052542;28;20095;-78
2021/10/17 09:16:39;;;;;;;15.63;11.48;;;9.20;99.90;;;;;;5052389;28;20132;-76
2021/10/17 09:19:23;;;;;;;14.05;10.43;;;9.20;99.90;;;;;;5053198;28;20148;-80
2021/10/17 09:21:58;;;;;;;17.23;12.53;;;9.30;99.90;;;;;;5052864;28;20083;-80
2021/10/17 09:24:29;;;;;;;15.45;11.23;;;9.40;99.90;;;;;;5051369;28;20562;-80
2021/10/17 09:27:11;;;;;;;15.90;11.68;;;9.40;99.90;;;;;;5053138;28;20128;-80
2021/10/17 09:29:40;;;;;;;16.17;11.70;;;9.40;99.90;;;;;;5052718;28;20132;-79
2021/10/17 09:32:14;;;;;;;16.75;12.07;;;9.50;99.90;;;;;;5052224;28;20143;-77
2021/10/17 09:34:52;;;;;;;15.82;11.80;;;9.50;99.90;;;;;;5051431;28;20064;-79
2021/10/17 09:37:21;;;;;;;17.23;12.13;;;9.60;99.90;;;;;;5051875;28;20124;-79
2021/10/17 09:39:52;;;;;;;15.80;11.02;;;9.70;99.90;;;;;;5051383;28;20102;-79
2021/10/17 09:42:21;;;;;;;15.43;10.90;;;9.70;99.90;;;;;;5052600;28;20048;-80
2021/10/17 09:44:48;;;;;;;16.70;11.50;;;9.80;99.90;;;;;;5053124;28;20045;-76
2021/10/17 09:47:16;;;;;;;15.98;11.85;;;9.90;99.90;;;;;;5052559;28;20120;-79
2021/10/17 09:49:45;;;;;;;15.75;11.55;;;10.00;99.90;;;;;;5054521;28;20132;-79
2021/10/17 09:52:17;;;;;;;16.27;11.43;;;10.10;99.90;;;;;;5057127;28;20045;-79
2021/10/17 09:54:48;;;;;;;17.10;11.43;;;10.10;99.90;;;;;;5053651;28;20089;-79
2021/10/17 09:57:16;;;;;;;15.23;10.43;;;10.20;99.90;;;;;;5055852;28;20442;-77
2021/10/17 09:59:43;;;;;;;16.52;11.32;;;10.30;99.90;;;;;;5052233;28;20101;-79
2021/10/17 10:02:12;;;;;;;13.65;9.60;;;10.40;99.90;;;;;;5052426;28;20145;-76
2021/10/17 10:04:41;;;;;;;16.00;11.25;;;10.50;99.90;;;;;;5052056;28;20131;-78
2021/10/17 10:07:09;;;;;;;17.90;11.50;;;10.60;99.90;;;;;;5052341;28;20489;-79
2021/10/17 10:09:36;;;;;;;15.15;10.38;;;10.60;99.90;;;;;;5052267;28;20052;-79
2021/10/17 10:12:07;;;;;;;14.68;10.10;;;10.70;99.90;;;;;;5051280;28;20136;-80
2021/10/17 10:14:34;;;;;;;15.18;9.73;;;10.80;99.90;;;;;;5051706;28;20144;-79
2021/10/17 10:17:03;;;;;;;13.52;9.35;;;10.90;99.90;;;;;;5051471;28;20159;-81
2021/10/17 10:19:32;;;;;;;12.23;9.18;;;10.90;99.90;;;;;;5052018;28;20379;-81
2021/10/17 10:21:59;;;;;;;14.82;9.68;;;11.00;99.90;;;;;;5052048;28;20469;-78
2021/10/17 10:24:28;;;;;;;14.20;10.15;;;11.10;99.90;;;;;;5051401;28;20064;-79
2021/10/17 10:26:55;;;;;;;14.57;10.07;;;11.20;99.90;;;;;;5051321;28;20095;-80
2021/10/17 10:29:32;;;;;;;14.82;10.25;;;11.20;99.90;;;;;;5051432;28;20055;-77
2021/10/17 10:32:00;;;;;;;14.25;9.68;;;11.30;99.90;;;;;;5051463;28;20136;-77
2021/10/17 10:35:03;;;;;;;12.50;9.35;;;11.40;99.90;;;;;;5051133;28;20151;-79
2021/10/17 10:37:33;;;;;;;14.77;9.52;;;11.40;99.90;;;;;;5055000;28;20095;-78
2021/10/17 10:40:17;;;;;;;13.55;9.07;;;11.50;99.90;;;;;;5055524;28;20060;-80
2021/10/17 10:42:48;;;;;;;13.07;9.55;;;11.60;99.90;;;;;;5055862;28;20095;-81
2021/10/17 10:45:32;;;;;;;13.25;9.65;;;11.60;99.90;;;;;;5055116;28;20525;-80
2021/10/17 10:48:22;;;;;;;17.05;12.40;;;11.70;99.90;;;;;;5055536;28;20425;-80
2021/10/17 10:50:56;;;;;;;16.30;11.70;;;11.80;99.90;;;;;;5055540;28;20564;-81
2021/10/17 10:53:51;;;;;;;13.02;9.05;;;11.80;99.90;;;;;;5055890;28;20136;-78
2021/10/17 10:56:48;;;;;;;13.70;10.23;;;11.90;99.90;;;;;;5055948;28;20049;-78
2021/10/17 10:59:19;;;;;;;15.57;11.30;;;11.90;99.90;;;;;;5055078;28;20045;-76
2021/10/17 11:02:02;;;;;;;13.60;9.73;;;12.00;99.90;;;;;;5054395;28;20041;-79
2021/10/17 11:05:15;;;;;;;12.57;9.02;;;12.00;99.90;;;;;;5055820;28;20060;-79
2021/10/17 11:07:45;;;;;;;;;;;12.10;99.90;;;;;;5040338;28;20064;-80
2021/10/17 11:10:46;;;;;;;13.32;9.32;;;12.20;99.90;;;;;;5055595;28;20022;-75
2021/10/17 11:13:34;;;;;;;13.75;9.02;;;12.30;99.90;;;;;;5036617;28;20045;-77
2021/10/17 11:16:02;;;;;;;11.65;8.48;;;12.40;99.90;;;;;;5055546;28;20136;-79
2021/10/17 11:18:35;;;;;;;13.30;9.50;;;12.50;99.90;;;;;;5054866;28;20084;-79
2021/10/17 11:21:05;;;;;;;14.70;9.93;;;12.60;99.90;;;;;;5055615;28;20052;-77
2021/10/17 11:23:36;;;;;;;13.60;9.90;;;12.50;99.90;;;;;;5055872;28;20120;-78
2021/10/17 11:26:06;;;;;;;12.57;8.50;;;12.70;99.90;;;;;;5055576;28;20091;-78
2021/10/17 11:28:37;;;;;;;11.85;8.55;;;12.80;99.90;;;;;;5054263;28;20157;-77
2021/10/17 11:31:08;;;;;;;11.20;8.00;;;13.00;99.90;;;;;;5041574;28;20051;-79
2021/10/17 11:33:38;;;;;;;11.52;8.00;;;13.10;99.90;;;;;;5054702;28;20083;-78
2021/10/17 11:36:06;;;;;;;11.85;7.93;;;13.10;99.90;;;;;;5054828;28;20140;-78
2021/10/17 11:38:34;;;;;;;12.02;8.23;;;13.20;99.90;;;;;;5054422;28;20064;-78
2021/10/17 11:41:05;;;;;;;10.80;7.93;;;13.40;99.80;;;;;;5036095;28;20618;-78
2021/10/17 11:43:39;;;;;;;12.98;9.35;;;13.50;99.40;;;;;;5042544;28;20087;-79
2021/10/17 11:46:09;;;;;;;11.95;7.20;;;13.60;98.30;;;;;;5054535;28;20128;-77
2021/10/17 11:48:38;;;;;;;10.60;7.35;;;13.70;98.40;;;;;;5053516;28;20586;-79
2021/10/17 11:51:09;;;;;;;9.63;6.63;;;13.80;98.40;;;;;;5053349;28;20116;-79
2021/10/17 11:53:36;;;;;;;10.93;7.55;;;13.90;98.50;;;;;;5053700;28;20128;-80
2021/10/17 11:56:05;;;;;;;9.95;6.63;;;14.10;98.10;;;;;;5054375;28;20087;-78
2021/10/17 11:58:32;;;;;;;9.85;6.60;;;14.20;97.80;;;;;;5053466;28;20693;-80
2021/10/17 12:01:09;;;;;;;8.30;5.95;;;14.30;97.30;;;;;;5054321;28;20140;-80
2021/10/17 12:03:38;;;;;;;8.55;5.80;;;14.40;97.30;;;;;;5054309;28;20501;-80
2021/10/17 12:06:13;;;;;;;9.50;6.53;;;14.60;97.20;;;;;;5053730;28;20132;-79
2021/10/17 12:08:40;;;;;;;10.45;6.85;;;14.70;96.50;;;;;;5053860;28;20049;-78
2021/10/17 12:11:11;;;;;;;11.48;7.22;;;14.80;96.10;;;;;;5053893;28;20375;-78
2021/10/17 12:13:41;;;;;;;11.65;8.05;;;14.90;95.80;;;;;;5053768;28;20091;-78
2021/10/17 12:16:12;;;;;;;10.30;7.15;;;15.10;95.00;;;;;;5053599;28;20141;-78
2021/10/17 12:18:46;;;;;;;9.95;6.43;;;15.20;95.20;;;;;;5042446;28;20048;-79
2021/10/17 12:21:17;;;;;;;8.63;6.05;;;15.30;94.90;;;;;;5054492;28;20139;-77
2021/10/17 12:23:46;;;;;;;9.02;6.32;;;15.50;94.60;;;;;;5048756;28;20399;-78
2021/10/17 12:26:16;;;;;;;11.10;6.72;;;15.60;94.20;;;;;;5040161;28;20053;-80
2021/10/17 12:28:43;;;;;;;10.75;7.50;;;15.70;93.80;;;;;;5040882;28;20058;-80
2021/10/17 12:31:11;;;;;;;11.50;8.00;;;15.90;93.10;;;;;;5051627;28;20136;-79
2021/10/17 12:33:41;;;;;;;15.60;9.32;;;16.00;92.90;;;;;;5053315;28;20056;-79
2021/10/17 12:36:22;;;;;;;11.85;8.70;;;16.20;93.30;;;;;;5053345;28;20048;-79
2021/10/17 12:39:00;;;;;;;12.75;9.90;;;16.40;93.50;;;;;;5053298;28;20490;-78
2021/10/17 12:41:29;;;;;;;10.80;8.13;;;16.50;93.20;;;;;;5044360;28;20049;-76
2021/10/17 12:44:02;;;;;;;12.25;9.30;;;16.60;93.40;;;;;;5049091;28;20052;-77
2021/10/17 12:46:31;;;;;;;16.08;10.88;;;16.70;92.90;;;;;;5053336;28;20049;-79
2021/10/17 12:49:07;;;;;;;14.55;10.80;;;16.90;92.50;;;;;;5045316;28;20204;-80
2021/10/17 12:51:40;;;;;;;11.85;8.20;;;17.00;92.30;;;;;;5053029;28;20128;-79